Time;durP1;ratioP1;P1;durP2;ratioP2;P2;SDS_P1;SDS_P2;PMS_P1;PMS_P2;Temp;Humidity;BMP_temperature;BMP_pressure;BME280_temperature;BME280_humidity;BME280_pressure;Samples;Min_cycle;Max_cycle;Signal;HPM_P1;HPM_P2
2022/12/14 00:00:32;;;;;;;43.97;5.47;;;;;;;23.08;53.40;98709.97;7306773;19;130176;-65
2022/12/14 00:02:57;;;;;;;44.63;4.97;;;;;;;23.08;52.87;98709.97;7309623;19;129773;-65
2022/12/14 00:05:23;;;;;;;80.30;7.93;;;;;;;23.20;52.40;98708.59;7305256;19;129761;-63
2022/12/14 00:07:48;;;;;;;37.27;4.67;;;;;;;23.23;52.12;98708.25;7306515;19;129540;-64
2022/12/14 00:10:13;;;;;;;76.32;7.22;;;;;;;23.24;52.54;98707.25;7305296;19;129848;-63
2022/12/14 00:12:39;;;;;;;33.23;4.37;;;;;;;23.25;52.92;98687.91;7309712;19;129918;-66
2022/12/14 00:15:05;;;;;;;85.72;8.68;;;;;;;23.29;52.49;98694.47;7305058;19;129046;-66
2022/12/14 00:17:30;;;;;;;41.85;4.70;;;;;;;23.31;52.16;98697.75;7309546;19;130886;-66
2022/12/14 00:19:56;;;;;;;38.13;4.68;;;;;;;23.33;52.49;98684.47;7311474;19;130131;-68
2022/12/14 00:22:21;;;;;;;33.87;4.27;;;;;;;23.41;52.17;98677.34;7313704;19;129850;-72
2022/12/14 00:24:46;;;;;;;29.50;4.10;;;;;;;23.24;52.65;98671.34;7317154;19;128934;-68
2022/12/14 00:27:12;;;;;;;87.43;7.93;;;;;;;23.23;52.29;98684.66;7315227;19;130450;-68
2022/12/14 00:29:38;;;;;;;54.77;5.53;;;;;;;23.12;52.50;98657.00;7311217;19;129895;-66
2022/12/14 00:32:04;;;;;;;26.38;4.00;;;;;;;23.11;52.77;98672.91;7314996;19;129505;-68
2022/12/14 00:34:30;;;;;;;29.92;3.67;;;;;;;23.06;53.08;98677.84;7312170;19;129438;-67
2022/12/14 00:36:55;;;;;;;33.25;3.88;;;;;;;22.95;53.68;98678.22;7312791;19;129843;-67
2022/12/14 00:39:21;;;;;;;62.67;6.43;;;;;;;22.84;54.20;98674.16;7311635;19;130486;-66
2022/12/14 00:41:46;;;;;;;53.03;5.83;;;;;;;22.77;53.89;98682.88;7308538;19;130259;-68
2022/12/14 00:44:11;;;;;;;37.63;4.72;;;;;;;22.73;54.13;98671.91;7314336;19;129003;-68
2022/12/14 00:46:37;;;;;;;36.72;4.47;;;;;;;22.67;54.34;98666.53;7312682;19;130429;-65
2022/12/14 00:49:02;;;;;;;71.85;6.82;;;;;;;22.76;54.05;98665.50;7312332;19;131034;-67
2022/12/14 00:51:28;;;;;;;32.97;4.40;;;;;;;22.86;54.22;98674.00;7312951;19;129872;-68
2022/12/14 00:53:53;;;;;;;28.27;4.05;;;;;;;22.85;53.81;98669.75;7311251;19;130782;-68
2022/12/14 00:56:18;;;;;;;50.00;5.53;;;;;;;22.85;54.13;98656.66;7312019;19;129212;-66
2022/12/14 00:58:50;;;;;;;64.72;6.35;;;;;;;22.99;53.29;98674.28;7311667;19;129112;-68
2022/12/14 01:01:16;;;;;;;44.88;4.97;;;;;;;22.93;53.47;98662.69;7312079;19;130969;-67
2022/12/14 01:03:41;;;;;;;50.60;5.47;;;;;;;23.12;52.99;98677.97;7312819;19;131850;-66
2022/12/14 01:06:27;;;;;;;23.42;3.35;;;;;;;23.15;52.84;98674.19;7313304;19;129426;-69
2022/12/14 01:08:52;;;;;;;44.95;4.88;;;;;;;23.21;52.95;98684.00;7311656;19;129506;-68
2022/12/14 01:11:17;;;;;;;68.20;6.85;;;;;;;23.24;52.92;98687.09;7313262;19;129274;-67
2022/12/14 01:13:43;;;;;;;31.27;3.90;;;;;;;23.31;52.90;98675.94;7311058;19;129651;-69
2022/12/14 01:16:11;;;;;;;27.27;3.67;;;;;;;23.28;52.42;98665.78;7312124;19;130624;-68
2022/12/14 01:18:40;;;;;;;42.95;4.80;;;;;;;23.38;52.33;98667.22;7312807;19;129379;-68
2022/12/14 01:21:16;;;;;;;25.95;3.38;;;;;;;23.38;52.41;98650.66;7320076;19;129151;-70
2022/12/14 01:23:42;;;;;;;47.65;4.85;;;;;;;23.38;52.61;98669.00;7314936;19;129163;-68
2022/12/14 01:26:08;;;;;;;27.92;3.30;;;;;;;23.32;52.49;98665.28;7310463;19;129772;-65
2022/12/14 01:28:34;;;;;;;30.67;4.07;;;;;;;23.24;52.98;98665.28;7312693;19;129461;-68
2022/12/14 01:31:11;;;;;;;45.60;4.97;;;;;;;23.15;53.22;98650.59;7312450;19;129157;-66
2022/12/14 01:33:37;;;;;;;61.53;5.77;;;;;;;23.00;53.06;98636.59;7312376;19;129380;-68
2022/12/14 01:36:08;;;;;;;26.35;3.53;;;;;;;23.03;53.74;98654.59;7310472;19;129164;-65
2022/12/14 01:38:34;;;;;;;43.85;4.70;;;;;;;22.85;54.03;98643.53;7310825;19;129657;-68
2022/12/14 01:41:00;;;;;;;41.80;4.20;;;;;;;22.89;53.92;98657.94;7311992;19;129209;-65
2022/12/14 01:43:48;;;;;;;53.17;5.25;;;;;;;22.80;54.29;98646.69;7313636;19;128894;-67
2022/12/14 01:46:20;;;;;;;59.92;5.68;;;;;;;22.83;54.32;98645.50;7307987;19;130493;-67
2022/12/14 01:48:49;;;;;;;42.92;4.85;;;;;;;22.83;54.39;98645.50;7307657;19;129362;-67
2022/12/14 01:51:14;;;;;;;37.53;4.32;;;;;;;22.89;53.88;98640.41;7311004;19;129171;-66
2022/12/14 01:53:40;;;;;;;39.28;4.07;;;;;;;22.94;53.72;98638.09;7311711;19;128777;-65
2022/12/14 01:56:05;;;;;;;50.97;4.82;;;;;;;22.98;53.78;98633.31;7311034;19;129689;-67
2022/12/14 01:58:32;;;;;;;26.83;3.30;;;;;;;23.05;53.34;98636.91;7309713;19;129721;-68
2022/12/14 02:00:58;;;;;;;;;;;;;;;23.05;53.60;98629.03;7310628;19;129058;-68
2022/12/14 02:03:27;;;;;;;78.50;7.35;;;;;;;23.12;53.61;98632.59;7310441;19;130944;-67
2022/12/14 02:06:07;;;;;;;48.53;5.15;;;;;;;23.10;53.64;98642.44;7309715;19;130487;-67
2022/12/14 02:08:32;;;;;;;46.60;4.50;;;;;;;23.19;53.74;98638.75;7311129;19;129829;-67
2022/12/14 02:10:59;;;;;;;35.93;3.57;;;;;;;23.26;52.94;98644.97;7311324;19;129090;-65
2022/12/14 02:13:35;;;;;;;42.70;4.57;;;;;;;23.35;52.58;98645.75;7311927;19;129329;-67
2022/12/14 02:16:01;;;;;;;61.85;6.03;;;;;;;23.36;53.00;98648.22;7310798;19;129656;-67
2022/12/14 02:18:28;;;;;;;53.70;5.22;;;;;;;23.40;52.91;98644.25;7307953;19;129388;-65
2022/12/14 02:21:12;;;;;;;29.15;3.50;;;;;;;23.38;53.28;98646.22;7311283;19;128859;-67
2022/12/14 02:23:40;;;;;;;32.72;3.60;;;;;;;23.33;53.06;98622.34;7311385;19;129425;-67
2022/12/14 02:26:26;;;;;;;42.72;4.28;;;;;;;23.35;52.68;98638.72;7308936;19;129572;-67
2022/12/14 02:29:07;;;;;;;13.30;2.72;;;;;;;23.25;53.08;98641.50;7311452;19;129282;-67
2022/12/14 02:31:45;;;;;;;32.28;3.60;;;;;;;23.12;53.08;98614.25;7309662;19;129725;-65
2022/12/14 02:34:23;;;;;;;34.45;3.90;;;;;;;23.14;53.72;98628.81;7311334;19;129254;-67
2022/12/14 02:36:59;;;;;;;63.80;5.93;;;;;;;23.07;54.13;98627.84;7308112;19;129685;-67
2022/12/14 02:39:30;;;;;;;70.85;6.13;;;;;;;22.94;54.53;98621.56;7305546;19;131529;-66
2022/12/14 02:42:04;;;;;;;26.58;3.33;;;;;;;22.88;54.26;98614.38;7309114;19;129433;-64
2022/12/14 02:44:45;;;;;;;34.03;3.75;;;;;;;22.85;54.94;98626.03;7313715;19;129059;-67
2022/12/14 02:47:32;;;;;;;52.38;5.32;;;;;;;22.82;54.39;98622.91;7307257;19;129851;-66
2022/12/14 02:50:06;;;;;;;27.75;3.45;;;;;;;22.86;54.33;98617.16;7308880;19;129219;-66
2022/12/14 02:53:03;;;;;;;14.73;2.58;;;;;;;22.88;54.77;98607.31;7311495;19;129170;-68
2022/12/14 02:55:41;;;;;;;50.85;4.93;;;;;;;22.95;54.29;98613.53;7307331;19;129339;-69
2022/12/14 02:58:13;;;;;;;30.92;3.65;;;;;;;23.03;54.32;98612.66;7310342;19;129913;-66
2022/12/14 03:00:39;;;;;;;29.30;3.17;;;;;;;23.06;53.66;98623.63;7308761;19;129255;-66
2022/12/14 03:03:05;;;;;;;35.43;3.73;;;;;;;23.12;54.15;98614.25;7310524;19;129929;-68
2022/12/14 03:05:31;;;;;;;34.47;3.45;;;;;;;23.15;54.03;98616.53;7310629;19;129465;-68
2022/12/14 03:08:07;;;;;;;48.27;4.90;;;;;;;23.19;53.59;98615.16;7308683;19;129477;-66
2022/12/14 03:10:49;;;;;;;28.30;3.10;;;;;;;23.21;53.61;98613.19;7311708;19;129703;-68
2022/12/14 03:13:46;;;;;;;38.22;4.10;;;;;;;23.24;53.48;98618.09;7311664;19;130953;-65
2022/12/14 03:16:16;;;;;;;39.85;4.25;;;;;;;23.25;53.35;98589.06;7307213;19;129314;-69
2022/12/14 03:18:53;;;;;;;56.70;5.15;;;;;;;23.35;53.40;98604.63;7305142;19;131800;-66
2022/12/14 03:21:25;;;;;;;53.65;4.70;;;;;;;23.41;52.85;98603.09;7308017;19;129128;-64
2022/12/14 03:23:53;;;;;;;57.55;5.50;;;;;;;23.41;52.85;98598.66;7308837;19;129477;-64
2022/12/14 03:26:33;;;;;;;37.75;3.85;;;;;;;23.41;52.82;98593.41;7309286;19;129549;-64
2022/12/14 03:29:08;;;;;;;28.02;3.33;;;;;;;23.33;53.36;98585.63;7310118;19;130076;-64
2022/12/14 03:31:41;;;;;;;32.05;3.67;;;;;;;23.28;53.55;98582.69;7307163;19;129887;-67
2022/12/14 03:34:12;;;;;;;32.90;3.53;;;;;;;23.23;53.28;98583.19;7309084;19;129597;-66
2022/12/14 03:36:49;;;;;;;53.10;4.55;;;;;;;23.21;53.74;98581.72;7306204;19;129687;-66
2022/12/14 03:39:22;;;;;;;72.65;6.32;;;;;;;23.25;53.68;98567.28;7309805;19;129055;-66
2022/12/14 03:42:21;;;;;;;34.80;3.65;;;;;;;23.45;52.87;98563.22;7307869;19;129233;-66
2022/12/14 03:45:03;;;;;;;36.97;3.85;;;;;;;23.66;52.79;98560.75;7310674;19;129276;-64
2022/12/14 03:47:38;;;;;;;49.42;4.35;;;;;;;23.78;52.44;98548.84;7307484;19;128980;-66
2022/12/14 03:50:14;;;;;;;39.22;3.90;;;;;;;24.04;51.57;98551.88;7309629;19;130355;-65
2022/12/14 03:52:56;;;;;;;29.83;3.10;;;;;;;24.18;50.79;98551.03;7315603;19;129238;-67
2022/12/14 03:55:34;;;;;;;41.85;4.00;;;;;;;24.21;51.06;98560.38;7313789;19;129400;-65
2022/12/14 03:58:29;;;;;;;38.60;4.05;;;;;;;24.39;50.26;98553.75;7313806;19;128871;-65
2022/12/14 04:01:09;;;;;;;34.17;3.63;;;;;;;24.36;50.60;98545.44;7311230;19;129925;-64
2022/12/14 04:04:05;;;;;;;48.17;4.32;;;;;;;24.45;50.24;98537.25;7310418;19;132063;-69
2022/12/14 04:06:47;;;;;;;34.92;3.45;;;;;;;24.48;50.25;98539.53;7318148;19;130296;-65
2022/12/14 04:09:31;;;;;;;43.33;4.13;;;;;;;24.54;50.04;98534.53;7313413;19;131031;-62
2022/12/14 04:20:38;;;;;;;47.03;4.10;;;;;;;24.46;50.64;98522.31;7314538;19;129456;-62
2022/12/14 04:26:03;;;;;;;29.65;3.25;;;;;;;24.38;51.15;98525.84;7311540;19;130078;-65
2022/12/14 04:26:08;;;;;;;47.33;4.60;;;;;;;24.37;50.56;98529.50;7309138;19;131070;-62
2022/12/14 04:31:30;;;;;;;34.78;3.25;;;;;;;24.21;51.39;98524.41;7313216;19;129400;-66
2022/12/14 04:34:01;;;;;;;47.60;4.40;;;;;;;24.15;51.25;98517.28;7314417;19;130970;-66
2022/12/14 04:36:44;;;;;;;39.97;3.88;;;;;;;24.10;51.75;98510.94;7312920;19;129757;-64
2022/12/14 04:39:14;;;;;;;37.40;3.65;;;;;;;23.98;51.74;98510.56;7315049;19;129279;-66
2022/12/14 04:41:43;;;;;;;38.17;3.67;;;;;;;23.92;52.50;98511.25;7312738;19;129895;-66
2022/12/14 04:44:15;;;;;;;35.80;3.65;;;;;;;23.76;52.46;98489.63;7315207;19;129095;-64
2022/12/14 04:46:43;;;;;;;37.22;3.55;;;;;;;23.78;53.08;98506.84;7311234;19;129070;-64
2022/12/14 04:49:22;;;;;;;44.85;4.13;;;;;;;23.76;53.04;98493.06;7314101;19;129123;-66
2022/12/14 04:51:55;;;;;;;43.03;4.05;;;;;;;23.63;53.06;98492.88;7311883;19;129199;-64
2022/12/14 04:54:23;;;;;;;47.17;4.35;;;;;;;23.61;53.55;98494.03;7314222;19;129841;-65
2022/12/14 04:56:59;;;;;;;37.20;3.50;;;;;;;23.52;53.48;98480.19;7312048;19;129649;-64
2022/12/14 04:59:26;;;;;;;53.65;4.97;;;;;;;23.45;53.45;98476.66;7310322;19;131667;-65
2022/12/14 05:02:05;;;;;;;52.13;4.53;;;;;;;23.37;53.56;98474.09;7307834;19;129886;-66
2022/12/14 05:04:53;;;;;;;89.93;7.93;;;;;;;23.25;53.60;98455.31;7307874;19;129609;-65
2022/12/14 05:07:35;;;;;;;75.75;6.35;;;;;;;23.25;53.88;98467.63;7259055;19;129634;-66
2022/12/14 05:10:15;;;;;;;55.17;4.68;;;;;;;23.20;54.36;98459.47;7240770;19;130690;-68
2022/12/14 05:13:04;;;;;;;54.17;4.93;;;;;;;23.15;53.82;98467.06;7311356;19;130351;-67
2022/12/14 05:15:35;;;;;;;38.92;3.83;;;;;;;23.11;54.25;98466.59;7310587;19;129385;-67
2022/12/14 05:18:03;;;;;;;42.33;4.13;;;;;;;23.06;54.71;98462.88;7311916;19;129473;-67
2022/12/14 05:20:28;;;;;;;54.60;4.80;;;;;;;23.01;53.96;98468.66;7310001;19;128930;-65
2022/12/14 05:22:54;;;;;;;38.75;3.70;;;;;;;23.00;54.46;98464.41;7311122;19;129931;-64
2022/12/14 05:25:19;;;;;;;42.28;3.88;;;;;;;22.95;54.31;98460.66;7310581;19;129411;-64
2022/12/14 05:27:45;;;;;;;51.70;4.65;;;;;;;23.02;54.33;98456.34;7311731;19;130094;-67
2022/12/14 05:30:11;;;;;;;43.53;4.63;;;;;;;22.98;54.53;98457.69;7310008;19;131629;-65
2022/12/14 05:32:36;;;;;;;32.55;3.42;;;;;;;22.83;54.78;98436.69;7314028;19;129205;-65
2022/12/14 05:35:02;;;;;;;109.63;9.53;;;;;;;22.98;54.80;98447.19;7310450;19;129103;-67
2022/12/14 05:37:28;;;;;;;16.45;2.63;;;;;;;23.00;54.25;98447.84;7309938;19;131897;-68
2022/12/14 05:39:54;;;;;;;73.88;6.32;;;;;;;22.94;54.20;98420.53;7307422;19;129198;-68
2022/12/14 05:42:19;;;;;;;76.33;6.77;;;;;;;23.01;54.08;98439.81;7304654;19;129670;-65
2022/12/14 05:44:45;;;;;;;40.72;4.32;;;;;;;23.10;53.39;98427.44;7308047;19;129624;-64
2022/12/14 05:47:10;;;;;;;33.28;3.72;;;;;;;23.09;53.59;98431.03;7307549;19;129182;-64
2022/12/14 05:49:36;;;;;;;31.98;3.47;;;;;;;23.11;53.70;98424.66;7312040;19;130541;-65
2022/12/14 05:52:01;;;;;;;70.18;6.20;;;;;;;23.12;53.86;98413.16;7305920;19;130549;-65
2022/12/14 05:54:26;;;;;;;33.73;3.53;;;;;;;23.17;53.44;98402.94;7310261;19;129053;-68
2022/12/14 05:56:52;;;;;;;39.38;4.65;;;;;;;23.17;53.66;98413.44;7311519;19;131372;-65
2022/12/14 05:59:17;;;;;;;40.27;4.00;;;;;;;23.21;52.91;98409.47;7312414;19;129381;-67
2022/12/14 06:01:44;;;;;;;53.07;5.13;;;;;;;23.20;53.23;98396.56;7310815;19;129016;-68
2022/12/14 06:04:14;;;;;;;55.13;5.43;;;;;;;23.18;52.83;98403.78;7311153;19;129140;-68
2022/12/14 06:06:40;;;;;;;36.10;4.07;;;;;;;23.23;53.15;98404.06;7303337;19;129524;-65
2022/12/14 06:09:06;;;;;;;53.17;5.07;;;;;;;23.18;53.01;98398.53;7307931;19;129431;-66
2022/12/14 06:11:36;;;;;;;50.28;5.00;;;;;;;23.22;53.08;98389.31;7305866;19;131280;-66
2022/12/14 06:14:01;;;;;;;70.07;6.35;;;;;;;23.29;52.43;98381.59;7301837;19;129639;-65
2022/12/14 06:16:27;;;;;;;44.77;4.50;;;;;;;23.27;53.25;98386.97;7308231;19;129610;-65
2022/12/14 06:18:57;;;;;;;46.20;4.43;;;;;;;23.28;53.07;98396.50;7304969;19;130095;-66
2022/12/14 06:21:34;;;;;;;61.15;5.70;;;;;;;23.28;53.39;98393.06;7304355;19;129455;-67
2022/12/14 06:24:00;;;;;;;28.38;3.47;;;;;;;23.34;52.81;98382.66;7311869;19;129301;-65
2022/12/14 06:26:28;;;;;;;44.73;4.27;;;;;;;23.36;53.05;98388.53;7308787;19;129595;-68
2022/12/14 06:28:54;;;;;;;64.80;6.05;;;;;;;23.25;52.85;98375.84;7307642;19;130144;-67
2022/12/14 06:31:31;;;;;;;52.92;5.10;;;;;;;23.36;52.93;98396.41;7304729;19;129851;-67
2022/12/14 06:33:58;;;;;;;40.23;4.10;;;;;;;23.32;52.15;98384.63;7311378;19;129761;-65
2022/12/14 06:36:28;;;;;;;55.58;5.20;;;;;;;23.43;52.30;98392.09;7309855;19;130446;-67
2022/12/14 06:38:55;;;;;;;40.83;4.68;;;;;;;23.44;52.12;98396.31;7308884;19;131073;-67
2022/12/14 06:41:22;;;;;;;41.67;4.97;;;;;;;23.45;52.20;98384.84;7305143;19;129814;-67
2022/12/14 06:43:48;;;;;;;38.25;4.18;;;;;;;23.64;51.41;98383.47;7310524;19;129383;-65
2022/12/14 06:46:16;;;;;;;67.27;6.60;;;;;;;23.68;51.23;98379.50;7308871;19;129497;-66
2022/12/14 06:48:42;;;;;;;35.92;4.35;;;;;;;23.78;52.30;98369.53;7306336;19;129522;-66
2022/12/14 06:51:08;;;;;;;23.60;3.23;;;;;;;23.70;51.74;98367.81;7308797;19;129217;-66
2022/12/14 06:53:34;;;;;;;32.47;3.58;;;;;;;23.80;51.60;98373.59;7314410;19;129168;-65
2022/12/14 06:56:06;;;;;;;38.33;4.40;;;;;;;23.81;51.91;98372.63;7304553;19;129941;-68
2022/12/14 06:58:31;;;;;;;24.67;3.55;;;;;;;23.87;52.19;98377.13;7308978;19;129240;-68
2022/12/14 07:01:03;;;;;;;34.27;4.40;;;;;;;23.88;51.70;98355.09;7305748;19;130050;-65
2022/12/14 07:03:29;;;;;;;43.33;4.68;;;;;;;23.90;51.67;98368.88;7308693;19;129432;-67
2022/12/14 07:05:58;;;;;;;47.20;5.17;;;;;;;23.96;51.31;98370.78;7306676;19;129906;-67
2022/12/14 07:08:29;;;;;;;43.28;5.00;;;;;;;23.98;51.76;98371.41;7306663;19;129340;-63
2022/12/14 07:10:55;;;;;;;45.50;5.35;;;;;;;23.88;51.80;98354.31;7308777;19;130378;-63
2022/12/14 07:13:21;;;;;;;40.90;5.80;;;;;;;23.87;52.71;98358.75;7307673;19;129406;-64
2022/12/14 07:15:57;;;;;;;60.10;6.47;;;;;;;23.92;52.05;98376.56;7302751;19;132290;-64
2022/12/14 07:18:22;;;;;;;48.15;5.70;;;;;;;23.89;51.85;98369.88;7311167;19;129311;-63
2022/12/14 07:21:02;;;;;;;59.73;6.97;;;;;;;23.82;52.74;98366.34;7304669;19;131485;-66
2022/12/14 07:23:30;;;;;;;61.55;6.85;;;;;;;23.73;52.71;98351.72;7304473;19;129873;-66
2022/12/14 07:26:16;;;;;;;70.00;8.15;;;;;;;23.78;52.81;98365.09;7303451;19;133999;-66
2022/12/14 07:28:42;;;;;;;58.83;7.28;;;;;;;23.89;52.67;98356.75;7303410;19;129886;-63
2022/12/14 07:31:20;;;;;;;81.63;8.05;;;;;;;23.85;51.94;98355.47;7306874;19;129288;-67
2022/12/14 07:33:46;;;;;;;50.80;6.57;;;;;;;23.83;52.19;98346.97;7309968;19;129646;-64
2022/12/14 07:36:15;;;;;;;49.13;6.87;;;;;;;23.90;52.41;98352.31;7304181;19;130242;-70
2022/12/14 07:38:42;;;;;;;39.95;6.38;;;;;;;23.89;52.26;98343.63;7308662;19;129093;-67
2022/12/14 07:41:11;;;;;;;38.30;6.40;;;;;;;23.82;52.18;98328.78;7307673;19;129459;-67
2022/12/14 07:43:38;;;;;;;78.85;9.07;;;;;;;23.93;52.38;98342.25;7306950;19;129326;-66
2022/12/14 07:46:05;;;;;;;40.97;6.72;;;;;;;24.01;52.42;98349.25;7307224;19;131877;-65
2022/12/14 07:48:31;;;;;;;26.35;5.63;;;;;;;23.91;51.98;98339.00;7310540;19;129184;-62
2022/12/14 07:51:09;;;;;;;39.00;7.00;;;;;;;23.98;52.58;98337.28;7306500;19;130026;-64
2022/12/14 07:53:35;;;;;;;;;;;;;;;23.94;52.07;98338.63;7308877;19;130271;-66
2022/12/14 07:56:05;;;;;;;36.03;6.30;;;;;;;23.94;52.29;98330.75;7304827;19;129990;-62
2022/12/14 07:58:32;;;;;;;39.92;7.20;;;;;;;23.97;52.67;98337.44;7306900;19;129581;-63
2022/12/14 08:01:15;;;;;;;45.75;7.72;;;;;;;23.98;52.35;98323.38;7308061;19;128822;-63
2022/12/14 08:03:42;;;;;;;38.88;7.15;;;;;;;24.01;52.13;98318.56;7308472;19;129189;-68
2022/12/14 08:06:10;;;;;;;65.32;8.63;;;;;;;24.01;52.56;98318.56;7307179;19;129549;-65
2022/12/14 08:08:35;;;;;;;51.40;7.32;;;;;;;24.01;52.81;98310.69;7304505;19;129612;-65
2022/12/14 08:11:01;;;;;;;41.40;7.03;;;;;;;24.03;52.52;98313.13;7308750;19;129511;-63
2022/12/14 08:13:27;;;;;;;32.23;6.47;;;;;;;24.04;52.53;98310.31;7308245;19;130215;-64
2022/12/14 08:15:53;;;;;;;58.13;8.77;;;;;;;23.98;52.58;98305.78;7301984;19;131891;-64
2022/12/14 08:18:18;;;;;;;56.53;8.77;;;;;;;24.01;52.64;98299.34;7306188;19;129589;-64
2022/12/14 08:20:50;;;;;;;57.63;9.27;;;;;;;23.99;52.49;98299.53;7307047;19;129409;-66
2022/12/14 08:23:16;;;;;;;45.75;8.20;;;;;;;23.97;52.46;98301.50;7304583;19;130524;-70
2022/12/14 08:25:42;;;;;;;50.53;8.30;;;;;;;24.02;52.28;98299.16;7306443;19;129703;-66
2022/12/14 08:28:07;;;;;;;38.47;6.85;;;;;;;23.99;52.68;98290.84;7303930;19;129876;-63
2022/12/14 08:30:37;;;;;;;31.83;7.23;;;;;;;23.95;52.61;98284.31;7303016;19;129381;-67
2022/12/14 08:33:03;;;;;;;51.80;8.70;;;;;;;23.98;52.83;98289.22;7307267;19;129869;-67
2022/12/14 08:35:31;;;;;;;54.47;8.60;;;;;;;24.02;52.45;98275.53;7300650;19;129418;-64
2022/12/14 08:37:56;;;;;;;56.55;8.70;;;;;;;24.03;52.10;98279.78;7308310;19;129239;-64
2022/12/14 08:40:22;;;;;;;56.43;9.00;;;;;;;24.01;52.20;98280.97;7312437;19;130939;-63
2022/12/14 08:42:49;;;;;;;36.67;7.30;;;;;;;23.94;52.46;98278.25;7315109;19;129706;-63
2022/12/14 08:45:14;;;;;;;76.45;10.68;;;;;;;23.93;52.64;98278.44;7314666;19;129726;-62
2022/12/14 08:47:39;;;;;;;55.70;8.43;;;;;;;23.90;52.99;98279.63;7313087;19;129066;-67
2022/12/14 08:50:05;;;;;;;44.70;8.30;;;;;;;23.85;52.90;98287.22;7316406;19;129070;-65
2022/12/14 08:52:30;;;;;;;71.23;10.40;;;;;;;23.84;52.75;98275.13;7306736;19;130678;-65
2022/12/14 08:54:56;;;;;;;92.68;11.40;;;;;;;23.71;52.73;98248.75;7305990;19;130547;-66
2022/12/14 08:57:21;;;;;;;73.93;10.53;;;;;;;23.73;53.21;98270.38;7313993;19;129606;-64
2022/12/14 08:59:47;;;;;;;43.07;7.47;;;;;;;23.67;53.24;98265.84;7311835;19;131203;-65
2022/12/14 09:02:12;;;;;;;37.95;8.18;;;;;;;23.60;53.12;98253.66;7312442;19;129474;-64
2022/12/14 09:04:37;;;;;;;74.35;10.05;;;;;;;23.48;53.09;98232.34;7313500;19;132303;-65
2022/12/14 09:07:03;;;;;;;47.23;7.90;;;;;;;23.45;52.94;98240.59;7315286;19;129181;-67
2022/12/14 09:09:28;;;;;;;43.30;7.23;;;;;;;23.37;53.24;98245.91;7313651;19;129627;-65
2022/12/14 09:11:53;;;;;;;37.53;6.83;;;;;;;23.28;53.23;98241.78;7311273;19;129094;-67
2022/12/14 09:14:19;;;;;;;59.97;9.30;;;;;;;23.14;54.12;98225.03;7316005;19;129228;-66
2022/12/14 09:16:44;;;;;;;53.28;8.57;;;;;;;23.20;54.14;98233.97;7310719;19;129027;-66
2022/12/14 09:19:10;;;;;;;38.22;8.32;;;;;;;23.07;53.83;98220.72;7314600;19;129231;-67
2022/12/14 09:21:35;;;;;;;43.57;7.10;;;;;;;23.11;54.60;98227.19;7311644;19;129441;-66
2022/12/14 09:24:00;;;;;;;56.55;8.52;;;;;;;22.97;54.04;98207.06;7311782;19;130006;-64
2022/12/14 09:26:26;;;;;;;44.45;7.50;;;;;;;23.10;54.65;98217.72;7313592;19;130986;-64
2022/12/14 09:28:54;;;;;;;44.73;7.90;;;;;;;23.05;54.24;98209.59;7312697;19;129585;-67
2022/12/14 09:31:22;;;;;;;63.40;8.70;;;;;;;23.12;53.87;98206.03;7310922;19;129693;-67
2022/12/14 09:33:48;;;;;;;36.72;6.95;;;;;;;23.06;53.76;98205.97;7313850;19;132205;-66
2022/12/14 09:36:19;;;;;;;79.03;10.37;;;;;;;23.10;53.98;98207.22;7307396;19;129387;-64
2022/12/14 09:38:45;;;;;;;41.53;7.47;;;;;;;23.17;53.69;98208.13;7314135;19;129744;-67
2022/12/14 09:41:32;;;;;;;42.03;7.57;;;;;;;23.17;53.72;98203.69;7310217;19;129698;-64
2022/12/14 09:43:57;;;;;;;51.83;8.23;;;;;;;23.18;54.02;98194.00;7312808;19;130165;-67
2022/12/14 09:46:41;;;;;;;71.73;9.10;;;;;;;23.20;53.19;98197.28;7309179;19;130250;-67
2022/12/14 09:49:22;;;;;;;53.10;8.00;;;;;;;23.24;53.70;98182.78;7310121;19;129791;-64
2022/12/14 09:51:48;;;;;;;36.70;6.60;;;;;;;23.19;53.33;98164.16;7312027;19;129639;-67
2022/12/14 09:54:17;;;;;;;64.47;8.52;;;;;;;23.30;53.24;98171.59;7312329;19;129208;-66
2022/12/14 09:56:43;;;;;;;42.58;6.80;;;;;;;23.29;52.84;98169.97;7307356;19;129369;-66
2022/12/14 09:59:15;;;;;;;59.83;8.57;;;;;;;23.38;53.41;98171.50;7312570;19;129182;-65
2022/12/14 10:01:49;;;;;;;38.15;7.00;;;;;;;23.41;53.41;98162.41;7312109;19;130508;-66
2022/12/14 10:04:38;;;;;;;44.42;7.13;;;;;;;23.44;52.64;98149.75;7314275;19;129145;-66
2022/12/14 10:07:27;;;;;;;59.05;8.18;;;;;;;23.44;53.04;98141.06;7311065;19;130786;-67
2022/12/14 10:10:22;;;;;;;40.05;6.80;;;;;;;23.44;52.93;98131.38;7308171;19;129713;-66
2022/12/14 10:13:12;;;;;;;39.50;6.50;;;;;;;23.50;52.82;98135.09;7307385;19;130239;-64
2022/12/14 10:15:51;;;;;;;35.35;5.57;;;;;;;23.50;52.28;98130.66;7311161;19;129918;-65
2022/12/14 10:18:38;;;;;;;54.35;7.65;;;;;;;23.50;52.56;98141.16;7311839;19;129046;-68
2022/12/14 10:21:08;;;;;;;47.13;7.43;;;;;;;23.51;52.36;98141.94;7310670;19;129245;-64
2022/12/14 10:23:34;;;;;;;42.47;6.63;;;;;;;23.54;52.24;98131.91;7310478;19;129717;-68
2022/12/14 10:26:06;;;;;;;26.23;5.93;;;;;;;23.60;52.34;98139.00;7311512;19;129504;-66
2022/12/14 10:28:43;;;;;;;47.88;6.53;;;;;;;23.58;51.95;98127.91;7311502;19;129496;-65
2022/12/14 10:31:12;;;;;;;;;;;;;;;23.56;52.75;98123.84;7311573;19;129315;-65
2022/12/14 10:33:42;;;;;;;43.25;6.45;;;;;;;23.62;52.05;98123.09;7309725;19;132507;-64
2022/12/14 10:36:23;;;;;;;32.13;5.82;;;;;;;23.62;52.28;98105.53;7307162;19;130471;-66
2022/12/14 10:38:58;;;;;;;37.72;6.05;;;;;;;23.67;51.79;98111.03;7309015;19;130041;-64
2022/12/14 10:41:38;;;;;;;40.97;6.70;;;;;;;23.69;51.70;98103.78;7306062;19;130863;-62
2022/12/14 10:44:21;;;;;;;59.65;7.53;;;;;;;23.83;51.91;98100.25;7311328;19;129139;-64
2022/12/14 10:47:19;;;;;;;47.50;6.68;;;;;;;23.89;51.84;98091.63;7307129;19;130204;-64
2022/12/14 10:49:57;;;;;;;28.77;5.47;;;;;;;23.91;51.81;98089.63;7311763;19;129368;-66
2022/12/14 10:52:27;;;;;;;68.88;8.90;;;;;;;23.91;51.25;98086.19;7305691;19;129883;-65
2022/12/14 10:55:00;;;;;;;80.05;8.85;;;;;;;23.88;51.90;98082.13;7309874;19;129725;-64
2022/12/14 10:57:26;;;;;;;49.28;7.15;;;;;;;23.88;51.69;98086.56;7311419;19;129646;-64
2022/12/14 10:59:54;;;;;;;38.40;6.27;;;;;;;23.79;51.74;98067.53;7308244;19;131752;-62
2022/12/14 11:02:21;;;;;;;43.00;6.13;;;;;;;23.89;52.51;98077.69;7306170;19;129253;-64
2022/12/14 11:04:55;;;;;;;49.17;6.78;;;;;;;23.89;52.52;98069.81;7309640;19;129542;-65
2022/12/14 11:07:35;;;;;;;67.75;8.18;;;;;;;23.86;52.52;98068.41;7308857;19;129641;-62
2022/12/14 11:10:38;;;;;;;46.13;6.45;;;;;;;23.85;52.76;98061.50;7312186;19;129035;-65
2022/12/14 11:13:16;;;;;;;38.10;5.72;;;;;;;23.92;52.24;98072.06;7311455;19;128999;-60
2022/12/14 11:15:45;;;;;;;41.63;6.38;;;;;;;23.90;51.96;98080.13;7308175;19;130107;-62
2022/12/14 11:18:10;;;;;;;24.75;5.03;;;;;;;23.92;52.12;98072.06;7309545;19;130024;-64
2022/12/14 11:20:36;;;;;;;40.47;6.13;;;;;;;23.88;52.59;98050.63;7310119;19;129519;-64
2022/12/14 11:23:13;;;;;;;167.53;16.07;;;;;;;23.99;51.95;98063.25;7300074;19;128988;-63
2022/12/14 11:25:42;;;;;;;103.82;10.55;;;;;;;23.98;52.23;98066.88;7300528;19;130922;-65
2022/12/14 11:28:21;;;;;;;23.55;5.03;;;;;;;24.03;52.22;98061.06;7307738;19;130609;-63
2022/12/14 11:30:57;;;;;;;81.28;9.20;;;;;;;24.06;52.03;98058.06;7306061;19;129753;-65
2022/12/14 11:33:30;;;;;;;58.92;6.95;;;;;;;24.08;52.50;98056.84;7310304;19;129687;-65
2022/12/14 11:35:56;;;;;;;41.72;6.63;;;;;;;24.12;51.75;98052.84;7303649;19;131783;-65
2022/12/14 11:38:23;;;;;;;62.60;7.90;;;;;;;24.03;52.16;98053.97;7307323;19;130120;-63
2022/12/14 11:40:48;;;;;;;36.85;6.13;;;;;;;23.98;51.75;98060.84;7307233;19;129404;-64
2022/12/14 11:43:40;;;;;;;38.03;5.77;;;;;;;23.76;53.06;98056.59;7306347;19;130037;-65
2022/12/14 11:46:05;;;;;;;28.98;4.85;;;;;;;23.69;53.04;98061.78;7309655;19;129272;-62